USSS

Koltsovo Airport

Yekaterinburg, Russian Federation
TAF USSS 201658Z 2018/2118 35005MPS 3100 -SHSN BKN011 SCT015CB BECMG 2105/2107 9999 SCT020CB
Issued Valid From Valid To
Apr-20 @ 16:58 UTC
(an hour ago)
Apr-20 @ 18:00 UTC
(28 minutes ago)
Apr-21 @ 18:00 UTC
(in 24 hours)
Apr-20 @ 18:00 to Apr-21 @ 05:00
TAF USSS 201658Z 2018/2118 35005MPS 3100 -SHSN BKN011 SCT015CB
Wind Visibility Clouds Conditions
350° at 10 knots 3,106 meters
  • Broken at 1,100' AGL
  • Scattered at 1,500' AGL
  • Light Snow
Becoming Apr-21 @ 05:00 to Apr-21 @ 18:00
BECMG 2105/2107 9999 SCT020CB
Wind Visibility Clouds Conditions
350° at 10 knots 10,000+ meters
  • Scattered at 2,000' AGL
  • Light Snow
TAF USSS 201658Z 2018/2118 35005MPS 3100 -SHSN BKN011 SCT015CB BECMG 2105/2107 9999 SCT020CB
Issued Apr-20 @ 16:58 UTC
(an hour ago)
Valid From Apr-20 @ 18:00 UTC
(28 minutes ago)
Valid To Apr-21 @ 18:00 UTC
(in 24 hours)
Apr-20 @ 18:00 - Apr-21 @ 05:00
Wind Visibility
350° at 10 knots 3,106 meters
Clouds
  • Broken at 1,100' AGL
  • Scattered at 1,500' AGL
Conditions
  • Light Snow
Becoming Apr-21 @ 05:00 - Apr-21 @ 18:00
Wind Visibility
350° at 10 knots 10,000+ meters
Clouds
  • Scattered at 2,000' AGL
Conditions
  • Light Snow